createdAt,value
2023-05-06T00:02:15.125Z,13.99
2023-05-06T00:04:42.033Z,14.11
2023-05-06T00:07:09.164Z,14.06
2023-05-06T00:09:35.904Z,14.12
2023-05-06T00:12:02.887Z,14.09
2023-05-06T00:14:29.646Z,14.00
2023-05-06T00:16:56.397Z,14.07
2023-05-06T00:19:23.656Z,14.01
2023-05-06T00:21:50.353Z,13.85
2023-05-06T00:24:17.124Z,13.89
2023-05-06T00:26:43.976Z,13.78
2023-05-06T00:29:10.735Z,13.53
2023-05-06T00:31:37.478Z,13.61
2023-05-06T00:34:04.240Z,13.68
2023-05-06T00:36:31.928Z,13.72
2023-05-06T00:38:58.755Z,13.82
2023-05-06T00:41:25.566Z,13.55
2023-05-06T00:43:52.382Z,13.59
2023-05-06T00:46:19.153Z,13.42
2023-05-06T00:48:45.959Z,13.52
2023-05-06T00:51:13.143Z,13.45
2023-05-06T00:53:40.446Z,13.43
2023-05-06T00:56:07.968Z,13.36
2023-05-06T00:58:35.043Z,13.46
2023-05-06T01:01:02.219Z,13.46
2023-05-06T01:03:29.339Z,13.47
2023-05-06T01:06:20.838Z,13.46
2023-05-06T01:09:22.079Z,13.47
2023-05-06T01:12:08.374Z,13.47
2023-05-06T01:15:10.720Z,13.46
2023-05-06T01:17:41.951Z,13.43
2023-05-06T01:20:12.244Z,13.43
2023-05-06T01:22:39.302Z,13.34
2023-05-06T01:25:06.855Z,13.31
2023-05-06T01:27:33.721Z,13.30
2023-05-06T01:30:00.905Z,13.28
2023-05-06T01:33:04.758Z,13.17
2023-05-06T01:36:04.169Z,13.06
2023-05-06T01:38:44.856Z,12.92
2023-05-06T01:41:16.579Z,12.85
2023-05-06T01:43:45.116Z,12.96
2023-05-06T01:46:18.215Z,13.02
2023-05-06T01:48:46.221Z,12.91
2023-05-06T01:51:13.188Z,13.05
2023-05-06T01:53:39.917Z,13.04
2023-05-06T01:56:07.062Z,13.01
2023-05-06T01:58:33.733Z,13.10
2023-05-06T02:01:00.452Z,12.98
2023-05-06T02:03:27.243Z,13.00
2023-05-06T02:05:53.946Z,12.87
2023-05-06T02:08:20.851Z,12.86
2023-05-06T02:10:47.515Z,12.83
2023-05-06T02:13:14.312Z,12.83
2023-05-06T02:15:41.162Z,12.82
2023-05-06T02:18:08.173Z,12.73
2023-05-06T02:20:34.851Z,12.67
2023-05-06T02:23:01.593Z,12.73
2023-05-06T02:25:28.411Z,12.52
2023-05-06T02:27:55.152Z,12.56
2023-05-06T02:30:21.889Z,12.53
2023-05-06T02:32:48.654Z,12.51
2023-05-06T02:35:15.410Z,12.57
2023-05-06T02:37:42.147Z,12.58
2023-05-06T02:40:10.300Z,12.69
2023-05-06T02:42:37.382Z,12.69
2023-05-06T02:45:04.753Z,12.74
2023-05-06T02:47:31.473Z,12.77
2023-05-06T02:49:58.360Z,12.77
2023-05-06T02:52:25.106Z,12.55
2023-05-06T02:54:52.070Z,12.53
2023-05-06T02:57:18.826Z,12.48
2023-05-06T02:59:45.505Z,12.62
2023-05-06T03:02:12.610Z,12.28
2023-05-06T03:04:39.359Z,12.43
2023-05-06T03:07:06.096Z,12.50
2023-05-06T03:09:32.794Z,12.43
2023-05-06T03:11:59.512Z,12.44
2023-05-06T03:14:26.426Z,12.36
2023-05-06T03:16:53.253Z,12.42
2023-05-06T03:19:20.082Z,12.48
2023-05-06T03:21:46.835Z,12.43
2023-05-06T03:24:13.510Z,12.42
2023-05-06T03:26:40.400Z,11.99
2023-05-06T03:29:07.206Z,12.09
2023-05-06T03:31:33.930Z,12.11
2023-05-06T03:34:00.702Z,12.14
2023-05-06T03:36:28.322Z,11.88
2023-05-06T03:38:55.447Z,11.95
2023-05-06T03:41:22.389Z,12.07
2023-05-06T03:43:49.200Z,12.10
2023-05-06T03:46:16.531Z,11.98
2023-05-06T03:48:43.281Z,12.03
2023-05-06T03:51:10.020Z,12.09
2023-05-06T03:53:36.868Z,11.96
2023-05-06T03:56:03.588Z,12.06
2023-05-06T03:58:30.384Z,12.20
2023-05-06T04:00:57.250Z,12.10
2023-05-06T04:03:24.001Z,12.08
2023-05-06T04:05:51.419Z,11.91
2023-05-06T04:08:18.137Z,11.78
2023-05-06T04:10:45.547Z,11.88
2023-05-06T04:13:13.467Z,11.77
2023-05-06T04:15:41.816Z,11.90
2023-05-06T04:18:08.631Z,11.67
2023-05-06T04:20:36.089Z,11.77
2023-05-06T04:23:02.814Z,11.64
2023-05-06T04:25:30.178Z,11.67
2023-05-06T04:27:56.948Z,11.69
2023-05-06T04:30:23.746Z,11.64
2023-05-06T04:32:50.497Z,11.53
2023-05-06T04:35:17.413Z,11.59
2023-05-06T04:37:44.651Z,11.60
2023-05-06T04:40:14.030Z,11.65
2023-05-06T04:42:40.910Z,11.72
2023-05-06T04:45:08.369Z,11.78
2023-05-06T04:47:35.327Z,11.85
2023-05-06T04:50:02.123Z,11.89
2023-05-06T04:52:29.134Z,11.91
2023-05-06T04:54:55.947Z,12.01
2023-05-06T04:57:22.625Z,12.10
2023-05-06T04:59:49.361Z,12.08
2023-05-06T05:02:16.291Z,12.11
2023-05-06T05:04:43.045Z,12.14
2023-05-06T05:07:09.856Z,12.13
2023-05-06T05:09:36.840Z,12.01
2023-05-06T05:12:03.748Z,12.08
2023-05-06T05:14:30.526Z,12.27
2023-05-06T05:16:57.461Z,12.20
2023-05-06T05:19:24.363Z,12.26
2023-05-06T05:21:51.081Z,12.30
2023-05-06T05:24:17.814Z,12.21
2023-05-06T05:26:44.550Z,12.21
2023-05-06T05:29:11.477Z,12.21
2023-05-06T05:31:38.300Z,12.39
2023-05-06T05:34:04.978Z,12.38
2023-05-06T05:36:31.789Z,12.23
2023-05-06T05:38:58.493Z,12.17
2023-05-06T05:41:26.972Z,12.19
2023-05-06T05:43:53.721Z,12.29
2023-05-06T05:46:20.465Z,12.39
2023-05-06T05:48:47.198Z,12.45
2023-05-06T05:51:13.979Z,12.58
2023-05-06T05:53:40.749Z,12.61
2023-05-06T05:56:07.661Z,12.68
2023-05-06T05:58:34.611Z,12.86
2023-05-06T06:01:02.013Z,13.09
2023-05-06T06:03:29.015Z,13.28
2023-05-06T06:05:56.078Z,13.38
2023-05-06T06:08:23.053Z,13.47
2023-05-06T06:10:49.800Z,13.70
2023-05-06T06:13:16.643Z,13.75
2023-05-06T06:15:43.482Z,13.94
2023-05-06T06:18:10.346Z,14.07
2023-05-06T06:20:38.111Z,14.21
2023-05-06T06:23:04.908Z,14.22
2023-05-06T06:25:31.782Z,14.39
2023-05-06T06:27:58.597Z,14.37
2023-05-06T06:30:25.554Z,14.37
2023-05-06T06:32:54.001Z,14.24
2023-05-06T06:35:20.917Z,14.05
2023-05-06T06:37:47.868Z,14.02
2023-05-06T06:40:15.068Z,14.01
2023-05-06T06:42:41.927Z,14.08
2023-05-06T06:45:10.344Z,14.01
2023-05-06T06:47:37.468Z,13.99
2023-05-06T06:50:04.852Z,13.93
2023-05-06T06:52:31.920Z,14.02
2023-05-06T06:54:58.828Z,14.40
2023-05-06T06:57:25.691Z,14.36
2023-05-06T06:59:53.984Z,14.44
2023-05-06T07:02:21.568Z,14.61
2023-05-06T07:04:48.566Z,14.95
2023-05-06T07:07:15.568Z,15.09
2023-05-06T07:09:42.413Z,15.24
2023-05-06T07:12:09.606Z,15.44
2023-05-06T07:14:36.820Z,15.49
2023-05-06T07:17:03.767Z,15.38
2023-05-06T07:19:31.934Z,15.15
2023-05-06T07:21:58.935Z,15.14
2023-05-06T07:24:25.775Z,15.13
2023-05-06T07:26:52.695Z,15.32
2023-05-06T07:29:19.530Z,15.33
2023-05-06T07:31:46.345Z,15.38
2023-05-06T07:34:13.094Z,15.40
2023-05-06T07:36:41.146Z,15.33
2023-05-06T07:39:08.117Z,15.42
2023-05-06T07:41:35.179Z,15.52
2023-05-06T07:44:02.356Z,15.52
2023-05-06T07:46:29.304Z,15.79
2023-05-06T07:48:56.210Z,15.77
2023-05-06T07:51:23.176Z,15.93
2023-05-06T07:53:49.971Z,16.14
2023-05-06T07:56:18.218Z,16.31
2023-05-06T07:58:44.962Z,16.33
2023-05-06T08:01:11.777Z,16.43
2023-05-06T08:03:38.716Z,16.55
2023-05-06T08:06:05.662Z,16.64
2023-05-06T08:08:32.615Z,16.72
2023-05-06T08:10:59.541Z,16.95
2023-05-06T08:13:27.325Z,17.13
2023-05-06T08:15:54.376Z,17.13
2023-05-06T08:18:23.097Z,17.35
2023-05-06T08:20:51.451Z,17.43
2023-05-06T08:23:18.272Z,17.33
2023-05-06T08:25:45.132Z,17.33
2023-05-06T08:28:11.934Z,17.51
2023-05-06T08:30:38.783Z,17.49
2023-05-06T08:33:05.807Z,17.87
2023-05-06T08:35:32.667Z,17.64
2023-05-06T08:37:59.455Z,17.43
2023-05-06T08:40:27.390Z,17.50
2023-05-06T08:42:55.670Z,17.54
2023-05-06T08:45:23.695Z,17.70
2023-05-06T08:47:50.586Z,17.82
2023-05-06T08:50:17.636Z,18.02
2023-05-06T08:52:45.404Z,18.12
2023-05-06T08:55:12.700Z,18.23
2023-05-06T08:57:40.343Z,18.30
2023-05-06T09:00:11.328Z,18.32
2023-05-06T09:02:41.240Z,18.34
2023-05-06T09:05:10.525Z,18.38
2023-05-06T09:07:37.885Z,18.52
2023-05-06T09:10:13.209Z,18.25
2023-05-06T09:12:40.348Z,18.32
2023-05-06T09:15:08.111Z,18.46
2023-05-06T09:17:35.058Z,18.50
2023-05-06T09:20:02.263Z,18.51
2023-05-06T09:22:31.178Z,18.30
2023-05-06T09:24:59.011Z,18.48
2023-05-06T09:27:31.587Z,18.26
2023-05-06T09:30:07.940Z,18.07
2023-05-06T09:32:38.184Z,18.24
2023-05-06T09:35:07.391Z,18.37
2023-05-06T09:37:34.430Z,18.47
2023-05-06T09:40:01.509Z,18.69
2023-05-06T09:42:29.733Z,18.64
2023-05-06T09:45:07.445Z,18.45
2023-05-06T09:47:35.616Z,18.44
2023-05-06T09:50:03.537Z,18.72
2023-05-06T09:52:31.595Z,18.88
2023-05-06T09:54:58.920Z,18.98
2023-05-06T09:57:26.168Z,19.17
2023-05-06T09:59:53.911Z,19.51
2023-05-06T10:02:21.035Z,19.68
2023-05-06T10:04:49.514Z,19.73
2023-05-06T10:07:22.860Z,19.77
2023-05-06T10:09:51.463Z,19.82
2023-05-06T10:12:19.436Z,19.66
2023-05-06T10:14:46.439Z,19.46
2023-05-06T10:17:13.565Z,19.39
2023-05-06T10:19:43.004Z,19.25
2023-05-06T10:22:22.877Z,19.31
2023-05-06T10:24:59.305Z,19.45
2023-05-06T10:27:27.650Z,19.25
2023-05-06T10:29:59.770Z,19.26
2023-05-06T10:32:29.602Z,19.12
2023-05-06T10:34:57.356Z,19.21
2023-05-06T10:37:27.120Z,19.63
2023-05-06T10:39:55.110Z,19.79
2023-05-06T10:42:27.329Z,19.74
2023-05-06T10:44:59.039Z,19.73
2023-05-06T10:47:26.340Z,19.65
2023-05-06T10:50:19.172Z,19.85
2023-05-06T10:52:47.144Z,19.85
2023-05-06T10:55:34.161Z,19.71
2023-05-06T10:58:07.217Z,19.56
2023-05-06T11:00:34.954Z,19.58
2023-05-06T11:03:03.540Z,19.65
2023-05-06T11:05:30.698Z,19.71
2023-05-06T11:08:10.879Z,19.55
2023-05-06T11:10:37.965Z,19.78
2023-05-06T11:13:22.367Z,19.76
2023-05-06T11:15:52.722Z,19.89
2023-05-06T11:18:25.974Z,19.57
2023-05-06T11:21:22.336Z,19.82
2023-05-06T11:24:12.517Z,19.99
2023-05-06T11:26:41.260Z,20.35
2023-05-06T11:29:09.567Z,20.56
2023-05-06T11:31:39.288Z,20.55
2023-05-06T11:34:09.197Z,20.68
2023-05-06T11:36:37.577Z,20.52
2023-05-06T11:39:10.840Z,20.81
2023-05-06T11:41:41.670Z,21.00
2023-05-06T11:44:10.307Z,21.17
2023-05-06T11:46:38.543Z,21.10
2023-05-06T11:49:05.757Z,20.99
2023-05-06T11:51:33.071Z,21.06
2023-05-06T11:54:10.462Z,20.87
2023-05-06T11:56:54.209Z,20.76
2023-05-06T11:59:29.930Z,20.44
2023-05-06T12:01:58.016Z,20.29
2023-05-06T12:04:24.832Z,20.11
2023-05-06T12:06:51.966Z,20.24
2023-05-06T12:09:18.981Z,20.61
2023-05-06T12:11:45.887Z,20.90
2023-05-06T12:14:12.735Z,20.98
2023-05-06T12:16:40.590Z,21.11
2023-05-06T12:19:18.541Z,21.30
2023-05-06T12:21:46.600Z,21.48
2023-05-06T12:24:13.673Z,21.22
2023-05-06T12:26:46.000Z,21.02
2023-05-06T12:29:16.219Z,21.21
2023-05-06T12:31:47.549Z,21.00
2023-05-06T12:34:16.494Z,21.18
2023-05-06T12:36:45.017Z,21.13
2023-05-06T12:39:12.342Z,20.92
2023-05-06T12:41:46.501Z,20.73
2023-05-06T12:44:38.995Z,20.49
2023-05-06T12:47:18.356Z,20.50
2023-05-06T12:49:54.062Z,20.40
2023-05-06T12:52:22.500Z,20.38
2023-05-06T12:54:49.927Z,20.41
2023-05-06T12:57:16.893Z,20.50
2023-05-06T12:59:45.295Z,20.41
2023-05-06T13:02:12.455Z,20.46
2023-05-06T13:04:39.800Z,20.19
2023-05-06T13:07:06.908Z,20.31
2023-05-06T13:09:33.825Z,20.68
2023-05-06T13:12:01.383Z,20.77
2023-05-06T13:14:28.131Z,21.02
2023-05-06T13:16:55.031Z,20.95
2023-05-06T13:19:32.326Z,20.80
2023-05-06T13:22:01.043Z,20.69
2023-05-06T13:24:28.433Z,20.62
2023-05-06T13:26:56.652Z,20.76
2023-05-06T13:29:24.065Z,20.69
2023-05-06T13:31:51.288Z,20.54
2023-05-06T13:34:18.480Z,20.58
2023-05-06T13:36:45.332Z,20.70
2023-05-06T13:39:12.236Z,20.61
2023-05-06T13:41:39.054Z,20.56
2023-05-06T13:44:06.713Z,20.32
2023-05-06T13:46:33.722Z,20.61
2023-05-06T13:49:00.515Z,20.57
2023-05-06T13:51:30.206Z,20.64
2023-05-06T13:53:57.061Z,20.86
2023-05-06T13:56:23.937Z,20.83
2023-05-06T13:58:50.935Z,20.62
2023-05-06T14:01:17.925Z,20.54
2023-05-06T14:03:44.820Z,20.52
2023-05-06T14:06:11.908Z,20.49
2023-05-06T14:08:38.700Z,20.41
2023-05-06T14:11:05.708Z,20.44
2023-05-06T14:13:33.767Z,20.51
2023-05-06T14:16:00.884Z,20.47
2023-05-06T14:18:28.059Z,20.45
2023-05-06T14:20:55.375Z,20.45
2023-05-06T14:23:22.447Z,20.40
2023-05-06T14:25:49.752Z,20.68
2023-05-06T14:28:16.671Z,20.50
2023-05-06T14:30:44.524Z,20.58
2023-05-06T14:33:11.896Z,20.53
2023-05-06T14:35:42.828Z,20.58
2023-05-06T14:38:11.015Z,20.73
2023-05-06T14:40:39.052Z,20.86
2023-05-06T14:43:07.689Z,21.12
2023-05-06T14:45:34.773Z,21.49
2023-05-06T14:48:01.748Z,21.65
2023-05-06T14:50:28.961Z,21.70
2023-05-06T14:52:55.865Z,21.84
2023-05-06T14:55:22.865Z,21.58
2023-05-06T14:57:49.857Z,21.73
2023-05-06T15:00:17.679Z,21.62
2023-05-06T15:02:44.552Z,21.65
2023-05-06T15:05:12.723Z,21.51
2023-05-06T15:07:39.739Z,21.45
2023-05-06T15:10:07.044Z,21.50
2023-05-06T15:12:33.964Z,21.56
2023-05-06T15:15:00.930Z,21.39
2023-05-06T15:17:27.847Z,21.06
2023-05-06T15:19:54.635Z,20.98
2023-05-06T15:22:21.441Z,21.15
2023-05-06T15:24:48.291Z,21.12
2023-05-06T15:27:15.541Z,21.04
2023-05-06T15:29:42.425Z,21.05
2023-05-06T15:32:09.396Z,21.18
2023-05-06T15:34:36.316Z,21.10
2023-05-06T15:37:03.457Z,21.27
2023-05-06T15:39:36.879Z,21.41
2023-05-06T15:42:04.202Z,21.54
2023-05-06T15:44:32.512Z,21.49
2023-05-06T15:46:59.866Z,21.52
2023-05-06T15:49:49.419Z,21.28
2023-05-06T15:52:13.750Z,21.19
2023-05-06T15:54:41.194Z,21.43
2023-05-06T15:57:08.615Z,21.70
2023-05-06T15:59:35.682Z,21.87
2023-05-06T16:04:34.039Z,22.06
2023-05-06T16:07:02.304Z,21.85
2023-05-06T16:09:31.975Z,21.56
2023-05-06T16:11:58.957Z,21.68
2023-05-06T16:14:25.929Z,21.66
2023-05-06T16:16:52.880Z,21.69
2023-05-06T16:19:19.891Z,21.73
2023-05-06T16:21:46.815Z,21.71
2023-05-06T16:24:13.688Z,21.68
2023-05-06T16:26:40.618Z,21.75
2023-05-06T16:29:07.473Z,21.79
2023-05-06T16:31:34.324Z,21.50
2023-05-06T16:34:01.158Z,21.27
2023-05-06T16:36:28.973Z,21.20
2023-05-06T16:38:56.016Z,21.17
2023-05-06T16:41:22.897Z,20.94
2023-05-06T16:43:50.197Z,20.96
2023-05-06T16:46:17.099Z,20.69
2023-05-06T16:48:43.986Z,20.77
2023-05-06T16:51:12.588Z,20.68
2023-05-06T16:53:39.561Z,20.74
2023-05-06T16:56:07.026Z,20.56
2023-05-06T16:58:33.871Z,20.49
2023-05-06T17:01:00.830Z,20.50
2023-05-06T17:03:27.654Z,20.34
2023-05-06T17:05:55.111Z,20.07
2023-05-06T17:08:24.380Z,20.13
2023-05-06T17:10:53.507Z,20.03
2023-05-06T17:13:20.387Z,20.00
2023-05-06T17:15:47.523Z,19.95
2023-05-06T17:18:14.547Z,20.16
2023-05-06T17:20:54.531Z,19.99
2023-05-06T17:23:23.190Z,20.00
2023-05-06T17:25:49.903Z,19.97
2023-05-06T17:28:18.095Z,20.00
2023-05-06T17:30:48.990Z,19.91
2023-05-06T17:33:16.544Z,19.87
2023-05-06T17:35:43.708Z,19.84
2023-05-06T17:38:12.726Z,19.83
2023-05-06T17:40:39.726Z,19.77
2023-05-06T17:43:08.164Z,19.79
2023-05-06T17:45:35.158Z,19.71
2023-05-06T17:48:02.492Z,19.68
2023-05-06T17:50:29.374Z,19.63
2023-05-06T17:52:56.273Z,19.51
2023-05-06T17:55:23.596Z,19.42
2023-05-06T17:57:52.876Z,19.40
2023-05-06T18:00:20.411Z,19.33
2023-05-06T18:02:47.818Z,19.29
2023-05-06T18:05:15.120Z,19.27
2023-05-06T18:07:42.710Z,19.28
2023-05-06T18:10:10.324Z,19.10
2023-05-06T18:12:37.453Z,19.08
2023-05-06T18:15:05.384Z,18.93
2023-05-06T18:17:32.186Z,18.84
2023-05-06T18:19:59.113Z,18.80
2023-05-06T18:22:25.911Z,18.64
2023-05-06T18:24:55.605Z,18.72
2023-05-06T18:27:22.987Z,18.59
2023-05-06T18:29:50.007Z,18.48
2023-05-06T18:32:17.232Z,18.32
2023-05-06T18:34:44.118Z,18.17
2023-05-06T18:37:10.903Z,18.33
2023-05-06T18:39:42.255Z,17.97
2023-05-06T18:42:09.489Z,18.05
2023-05-06T18:44:36.382Z,18.14
2023-05-06T18:47:03.179Z,17.96
2023-05-06T18:49:31.359Z,17.93
2023-05-06T18:51:58.271Z,17.81
2023-05-06T18:54:25.250Z,17.75
2023-05-06T18:56:52.203Z,17.65
2023-05-06T18:59:20.012Z,17.71
2023-05-06T19:01:47.124Z,17.82
2023-05-06T19:04:14.024Z,17.65
2023-05-06T19:06:41.270Z,17.38
2023-05-06T19:09:08.403Z,17.45
2023-05-06T19:11:35.678Z,17.34
2023-05-06T19:14:03.088Z,17.34
2023-05-06T19:16:29.968Z,17.31
2023-05-06T19:18:56.906Z,17.38
2023-05-06T19:21:23.821Z,17.40
2023-05-06T19:23:51.101Z,17.21
2023-05-06T19:26:17.871Z,17.19
2023-05-06T19:28:44.688Z,17.02
2023-05-06T19:31:11.869Z,16.87
2023-05-06T19:33:39.129Z,16.75
2023-05-06T19:36:06.859Z,16.79
2023-05-06T19:38:34.305Z,16.75
2023-05-06T19:41:01.470Z,16.72
2023-05-06T19:43:28.563Z,16.62
2023-05-06T19:45:55.444Z,16.64
2023-05-06T19:48:23.904Z,16.46
2023-05-06T19:50:51.953Z,16.49
2023-05-06T19:53:19.151Z,16.29
2023-05-06T19:55:45.830Z,16.20
2023-05-06T19:58:14.296Z,16.46
2023-05-06T20:00:41.154Z,16.42
2023-05-06T20:03:08.340Z,16.49
2023-05-06T20:05:35.234Z,16.48
2023-05-06T20:08:02.294Z,16.52
2023-05-06T20:10:29.654Z,16.55
2023-05-06T20:12:57.891Z,16.49
2023-05-06T20:15:25.283Z,16.36
2023-05-06T20:17:52.313Z,16.21
2023-05-06T20:20:19.735Z,16.31
2023-05-06T20:22:46.557Z,16.24
2023-05-06T20:25:16.410Z,16.20
2023-05-06T20:27:44.095Z,16.17
2023-05-06T20:30:11.389Z,16.23
2023-05-06T20:32:40.688Z,16.07
2023-05-06T20:35:08.156Z,16.00
2023-05-06T20:37:35.622Z,16.00
2023-05-06T20:40:04.969Z,15.89
2023-05-06T20:42:32.102Z,15.78
2023-05-06T20:44:59.276Z,15.51
2023-05-06T20:47:26.540Z,15.50
2023-05-06T20:49:53.615Z,15.55
2023-05-06T20:52:21.883Z,15.74
2023-05-06T20:54:48.790Z,15.64
2023-05-06T20:57:16.723Z,15.54
2023-05-06T20:59:43.664Z,15.61
2023-05-06T21:02:10.875Z,15.77
2023-05-06T21:04:37.801Z,15.62
2023-05-06T21:07:04.685Z,15.60
2023-05-06T21:09:31.593Z,15.54
2023-05-06T21:11:58.995Z,15.43
2023-05-06T21:14:26.903Z,15.12
2023-05-06T21:16:53.903Z,15.06
2023-05-06T21:19:21.126Z,15.04
2023-05-06T21:21:48.526Z,15.13
2023-05-06T21:24:15.370Z,15.07
2023-05-06T21:26:42.217Z,14.95
2023-05-06T21:29:09.366Z,14.88
2023-05-06T21:31:36.595Z,14.91
2023-05-06T21:34:04.462Z,14.79
2023-05-06T21:36:31.513Z,14.67
2023-05-06T21:39:10.685Z,14.61
2023-05-06T21:41:38.169Z,14.67
2023-05-06T21:44:05.691Z,14.55
2023-05-06T21:46:32.883Z,14.51
2023-05-06T21:49:00.607Z,14.49
2023-05-06T21:51:28.611Z,14.57
2023-05-06T21:53:55.581Z,14.45
2023-05-06T21:56:22.636Z,14.45
2023-05-06T21:58:49.537Z,14.36
2023-05-06T22:01:16.373Z,14.10
2023-05-06T22:03:44.254Z,14.19
2023-05-06T22:06:11.468Z,14.13
2023-05-06T22:08:39.312Z,14.22
2023-05-06T22:11:06.285Z,14.16
2023-05-06T22:13:33.142Z,14.18
2023-05-06T22:15:59.944Z,14.28
2023-05-06T22:18:30.339Z,14.13
2023-05-06T22:20:58.969Z,14.05
2023-05-06T22:23:26.231Z,13.97
2023-05-06T22:25:53.048Z,13.96
2023-05-06T22:28:20.177Z,13.64
2023-05-06T22:30:46.956Z,13.57
2023-05-06T22:33:13.892Z,13.50
2023-05-06T22:35:40.997Z,13.58
2023-05-06T22:38:08.601Z,13.59
2023-05-06T22:40:35.400Z,13.54
2023-05-06T22:43:02.197Z,13.41
2023-05-06T22:45:29.115Z,13.40
2023-05-06T22:47:56.276Z,13.33
2023-05-06T22:50:23.116Z,13.25
2023-05-06T22:52:49.893Z,13.43
2023-05-06T22:55:16.825Z,13.42
2023-05-06T22:57:43.738Z,13.40
2023-05-06T23:00:12.870Z,13.37
2023-05-06T23:02:40.071Z,13.43
2023-05-06T23:05:07.287Z,13.37
2023-05-06T23:07:34.080Z,13.40
2023-05-06T23:10:01.202Z,13.31
2023-05-06T23:12:32.523Z,13.38
2023-05-06T23:15:00.390Z,13.26
2023-05-06T23:17:27.279Z,13.11
2023-05-06T23:19:54.091Z,12.97
2023-05-06T23:22:20.814Z,13.11
2023-05-06T23:24:47.616Z,13.01
2023-05-06T23:27:14.392Z,13.02
2023-05-06T23:29:41.551Z,13.16
2023-05-06T23:32:08.431Z,13.20
2023-05-06T23:34:35.179Z,13.11
2023-05-06T23:37:02.079Z,12.95
2023-05-06T23:39:28.872Z,12.87
2023-05-06T23:41:55.661Z,12.94
2023-05-06T23:44:23.263Z,12.91
2023-05-06T23:46:50.086Z,13.07
2023-05-06T23:49:17.059Z,13.15
2023-05-06T23:51:43.908Z,13.23
2023-05-06T23:54:10.776Z,13.34
2023-05-06T23:56:37.538Z,13.15
2023-05-06T23:59:04.462Z,13.08
